Time;durP1;ratioP1;P1;durP2;ratioP2;P2;SDS_P1;SDS_P2;PMS_P1;PMS_P2;Temp;Humidity;BMP_temperature;BMP_pressure;BME280_temperature;BME280_humidity;BME280_pressure;Samples;Min_cycle;Max_cycle;Signal;HPM_P1;HPM_P2
2024/01/19 00:02:10;;;;;;;96.55;22.30;;;-0.60;99.90;;;;;;5091802;28;20284;-49
2024/01/19 00:04:36;;;;;;;64.13;20.77;;;-0.50;99.90;;;;;;5091565;28;20260;-50
2024/01/19 00:07:01;;;;;;;112.38;23.17;;;-0.50;99.90;;;;;;5092034;28;20218;-50
2024/01/19 00:09:27;;;;;;;91.88;21.25;;;-0.50;99.90;;;;;;5091446;28;20165;-49
2024/01/19 00:11:52;;;;;;;70.97;22.13;;;-0.50;99.90;;;;;;5091368;28;20504;-50
2024/01/19 00:14:18;;;;;;;93.88;20.33;;;-0.50;99.90;;;;;;5091603;28;20201;-48
2024/01/19 00:16:43;;;;;;;51.58;19.67;;;-0.60;99.90;;;;;;5091579;28;20161;-49
2024/01/19 00:19:09;;;;;;;63.67;22.05;;;-0.70;99.90;;;;;;5091256;28;20777;-51
2024/01/19 00:21:44;;;;;;;75.68;18.60;;;-0.60;99.90;;;;;;5090028;28;20214;-50
2024/01/19 00:24:13;;;;;;;47.63;17.05;;;-0.70;99.90;;;;;;5091281;28;20169;-52
2024/01/19 00:26:39;;;;;;;105.55;19.65;;;-0.80;99.90;;;;;;5091372;28;20169;-52
2024/01/19 00:29:06;;;;;;;85.60;20.05;;;-0.90;99.90;;;;;;5091262;28;20181;-50
2024/01/19 00:31:33;;;;;;;112.93;21.75;;;-0.80;99.90;;;;;;5091501;28;20169;-49
2024/01/19 00:33:58;;;;;;;95.10;21.35;;;-0.80;99.90;;;;;;5091794;28;20209;-57
2024/01/19 00:36:24;;;;;;;77.30;21.15;;;-0.80;99.90;;;;;;5091206;28;20245;-54
2024/01/19 00:38:51;;;;;;;75.93;20.48;;;-0.70;99.90;;;;;;5091082;28;20260;-54
2024/01/19 00:41:17;;;;;;;76.45;20.55;;;-0.70;99.90;;;;;;5091329;28;20165;-54
2024/01/19 00:43:42;;;;;;;87.03;20.70;;;-0.70;99.90;;;;;;5093743;28;20533;-57
2024/01/19 00:46:08;;;;;;;113.25;23.67;;;-0.80;99.90;;;;;;5095253;28;20534;-55
2024/01/19 00:48:33;;;;;;;77.43;21.90;;;-0.70;99.90;;;;;;5095241;28;20214;-52
2024/01/19 00:50:59;;;;;;;92.45;18.08;;;-0.70;99.90;;;;;;5095844;28;20172;-56
2024/01/19 00:53:24;;;;;;;54.55;18.13;;;-0.70;99.90;;;;;;5095327;28;20173;-57
2024/01/19 00:55:50;;;;;;;74.47;18.88;;;-0.90;99.90;;;;;;5094899;28;20208;-54
2024/01/19 00:58:15;;;;;;;59.08;19.63;;;-0.90;99.90;;;;;;5094866;28;20180;-55
2024/01/19 01:00:41;;;;;;;33.25;14.93;;;-0.80;99.90;;;;;;5095008;28;20185;-54
2024/01/19 01:03:08;;;;;;;62.90;18.98;;;-0.90;99.90;;;;;;5094883;28;20164;-58
2024/01/19 01:05:34;;;;;;;79.55;19.25;;;-0.90;99.90;;;;;;5094639;28;20530;-55
2024/01/19 01:07:59;;;;;;;61.92;20.85;;;-1.00;99.90;;;;;;5095584;28;20176;-54
2024/01/19 01:10:25;;;;;;;56.83;15.95;;;-0.90;99.90;;;;;;5094782;28;20562;-57
2024/01/19 01:12:50;;;;;;;50.00;18.88;;;-1.10;99.90;;;;;;5094721;28;20186;-55
2024/01/19 01:15:16;;;;;;;86.07;19.98;;;-1.00;99.90;;;;;;5094645;28;20157;-57
2024/01/19 01:17:42;;;;;;;38.75;15.20;;;-1.00;99.90;;;;;;5094677;28;20174;-54
2024/01/19 01:20:10;;;;;;;50.70;20.45;;;-1.00;99.90;;;;;;5094513;28;20562;-51
2024/01/19 01:22:36;;;;;;;38.63;18.35;;;-1.00;99.90;;;;;;5094515;28;20518;-58
2024/01/19 01:25:02;;;;;;;53.22;20.50;;;-1.00;99.90;;;;;;5094999;28;20165;-57
2024/01/19 01:27:27;;;;;;;89.15;21.17;;;-1.00;99.90;;;;;;5094907;28;20194;-55
2024/01/19 01:29:53;;;;;;;55.50;18.30;;;-1.10;99.90;;;;;;5094651;28;20195;-56
2024/01/19 01:32:18;;;;;;;54.63;18.40;;;-1.10;99.90;;;;;;5094291;28;20157;-57
2024/01/19 01:34:44;;;;;;;40.92;18.17;;;-1.10;99.90;;;;;;5093036;28;20169;-56
2024/01/19 01:37:09;;;;;;;38.63;18.45;;;-1.30;99.90;;;;;;5094317;28;20248;-54
2024/01/19 01:39:35;;;;;;;44.10;19.10;;;-1.20;99.90;;;;;;5094222;28;20232;-57
2024/01/19 01:42:01;;;;;;;41.15;19.20;;;-1.20;99.90;;;;;;5094700;28;20607;-57
2024/01/19 01:44:26;;;;;;;41.05;19.17;;;-1.20;99.90;;;;;;5094109;28;20173;-51
2024/01/19 01:46:52;;;;;;;44.58;21.52;;;-1.20;99.90;;;;;;5094106;28;20169;-54
2024/01/19 01:49:18;;;;;;;31.50;16.57;;;-1.20;99.90;;;;;;5094084;28;20165;-55
2024/01/19 01:51:45;;;;;;;28.92;15.35;;;-1.20;99.90;;;;;;5094008;28;20651;-54
2024/01/19 01:54:12;;;;;;;40.88;20.13;;;-1.30;99.90;;;;;;5091377;28;20552;-56
2024/01/19 01:56:37;;;;;;;41.97;20.30;;;-1.20;99.90;;;;;;5092578;28;20209;-57
2024/01/19 01:59:03;;;;;;;44.20;22.92;;;-1.20;99.90;;;;;;5093861;28;20624;-56
2024/01/19 02:01:29;;;;;;;41.22;22.13;;;-1.10;99.90;;;;;;5094314;28;20173;-55
2024/01/19 02:03:56;;;;;;;36.08;17.52;;;-1.10;99.90;;;;;;5093884;28;20171;-57
2024/01/19 02:06:21;;;;;;;41.42;20.85;;;-1.10;99.90;;;;;;5093681;28;20625;-57
2024/01/19 02:08:47;;;;;;;36.60;17.13;;;-1.10;99.90;;;;;;5093900;28;20176;-57
2024/01/19 02:11:13;;;;;;;36.63;18.02;;;-1.10;99.90;;;;;;5093656;28;20617;-57
2024/01/19 02:13:39;;;;;;;38.83;19.40;;;-1.10;99.90;;;;;;5093644;28;20161;-56
2024/01/19 02:16:04;;;;;;;43.03;18.77;;;-1.10;99.90;;;;;;5093535;28;20169;-57
2024/01/19 02:18:30;;;;;;;42.20;17.85;;;-1.10;99.90;;;;;;5093860;28;20249;-57
2024/01/19 02:20:55;;;;;;;40.00;18.27;;;-1.10;99.90;;;;;;5093398;28;20587;-56
2024/01/19 02:23:27;;;;;;;40.60;19.42;;;-1.00;99.90;;;;;;5093368;28;20681;-56
2024/01/19 02:25:53;;;;;;;43.58;20.60;;;-1.00;99.90;;;;;;5093281;28;20203;-57
2024/01/19 02:28:19;;;;;;;41.40;21.23;;;-1.00;99.90;;;;;;5093237;28;20189;-58
2024/01/19 02:30:45;;;;;;;45.45;20.63;;;-1.00;99.90;;;;;;5093287;28;20169;-57
2024/01/19 02:33:11;;;;;;;50.58;21.17;;;-0.90;99.90;;;;;;5093221;28;20158;-57
2024/01/19 02:35:36;;;;;;;41.42;18.55;;;-0.90;99.90;;;;;;5093429;28;20500;-56
2024/01/19 02:38:03;;;;;;;42.20;20.45;;;-0.80;99.90;;;;;;5091892;28;20191;-57
2024/01/19 02:40:28;;;;;;;54.78;22.30;;;-0.80;99.90;;;;;;5093380;28;20292;-57
2024/01/19 02:42:54;;;;;;;45.83;21.35;;;-0.80;99.90;;;;;;5093077;28;20263;-57
2024/01/19 02:45:19;;;;;;;43.95;20.45;;;-0.80;99.90;;;;;;5093101;28;20226;-51
2024/01/19 02:47:45;;;;;;;48.20;22.38;;;-0.70;99.90;;;;;;5092928;28;20663;-55
2024/01/19 02:50:10;;;;;;;42.38;20.77;;;-0.70;99.90;;;;;;5093147;28;20242;-51
2024/01/19 02:52:36;;;;;;;44.88;19.58;;;-0.70;99.90;;;;;;5092834;28;20162;-50
2024/01/19 02:55:04;;;;;;;46.70;22.17;;;-0.60;99.90;;;;;;5092735;28;20157;-51
2024/01/19 02:57:30;;;;;;;44.92;19.55;;;-0.60;99.90;;;;;;5093002;28;20229;-50
2024/01/19 02:59:56;;;;;;;35.33;16.45;;;-0.50;99.90;;;;;;5091323;28;20209;-49
2024/01/19 03:02:22;;;;;;;40.72;18.92;;;-0.60;99.90;;;;;;5091358;28;20180;-49
2024/01/19 03:04:47;;;;;;;47.90;21.35;;;-0.50;99.90;;;;;;5092565;28;20698;-51
2024/01/19 03:07:13;;;;;;;42.95;20.83;;;-0.50;99.90;;;;;;5092258;28;20173;-49
2024/01/19 03:09:38;;;;;;;40.75;20.67;;;-0.50;99.90;;;;;;5092746;28;20169;-49
2024/01/19 03:12:04;;;;;;;39.17;18.75;;;-0.50;99.90;;;;;;5092403;28;20636;-56
2024/01/19 03:14:33;;;;;;;37.95;20.00;;;-0.50;99.90;;;;;;5092846;28;20641;-49
2024/01/19 03:16:58;;;;;;;42.10;20.23;;;-0.50;99.90;;;;;;5091514;28;20166;-49
2024/01/19 03:19:24;;;;;;;38.88;18.55;;;-0.50;99.90;;;;;;5092231;28;20338;-56
2024/01/19 03:21:50;;;;;;;38.80;19.85;;;-0.50;99.90;;;;;;5092257;28;20162;-53
2024/01/19 03:24:16;;;;;;;42.10;19.35;;;-0.40;99.90;;;;;;5092251;28;20188;-49
2024/01/19 03:26:42;;;;;;;45.38;21.17;;;-0.40;99.90;;;;;;5090878;28;20169;-50
2024/01/19 03:29:08;;;;;;;44.88;22.02;;;-0.40;99.90;;;;;;5092310;28;20235;-49
2024/01/19 03:31:34;;;;;;;39.10;19.73;;;-0.30;99.90;;;;;;5092119;28;20165;-48
2024/01/19 03:34:00;;;;;;;44.97;20.63;;;-0.30;99.90;;;;;;5092564;28;20163;-50
2024/01/19 03:36:25;;;;;;;44.33;20.27;;;-0.20;99.90;;;;;;5092294;28;20223;-49
2024/01/19 03:38:51;;;;;;;43.80;20.60;;;-0.20;99.90;;;;;;5091889;28;20236;-53
2024/01/19 03:41:17;;;;;;;43.88;19.80;;;-0.20;99.90;;;;;;5091917;28;20180;-52
2024/01/19 03:43:44;;;;;;;40.80;19.25;;;-0.10;99.90;;;;;;5091999;28;20215;-50
2024/01/19 03:46:09;;;;;;;39.22;18.38;;;-0.10;99.90;;;;;;5091821;28;20169;-51
2024/01/19 03:48:35;;;;;;;40.67;17.17;;;-0.10;99.90;;;;;;5091859;28;20598;-51
2024/01/19 03:51:00;;;;;;;39.97;19.70;;;-0.10;99.90;;;;;;5092281;28;20570;-52
2024/01/19 03:53:26;;;;;;;38.38;18.77;;;0.00;99.90;;;;;;5092290;28;20633;-52
2024/01/19 03:55:52;;;;;;;38.60;18.13;;;0.00;99.90;;;;;;5090444;28;20208;-55
2024/01/19 03:58:17;;;;;;;43.10;19.13;;;0.00;99.90;;;;;;5091520;28;20268;-52
2024/01/19 04:00:43;;;;;;;37.58;18.38;;;0.10;99.90;;;;;;5091529;28;20173;-51
2024/01/19 04:03:08;;;;;;;37.88;18.13;;;0.20;99.90;;;;;;5091597;28;20525;-52
2024/01/19 04:05:34;;;;;;;35.13;18.40;;;0.20;99.90;;;;;;5091530;28;20187;-53
2024/01/19 04:07:59;;;;;;;34.22;16.85;;;0.30;99.90;;;;;;5091971;28;20373;-55
2024/01/19 04:10:26;;;;;;;38.80;17.65;;;0.30;99.90;;;;;;5091490;28;20181;-54
2024/01/19 04:12:52;;;;;;;40.80;17.88;;;0.20;99.90;;;;;;5091411;28;20170;-56
2024/01/19 04:15:18;;;;;;;37.67;16.52;;;0.30;99.90;;;;;;5091466;28;20176;-56
2024/01/19 04:17:44;;;;;;;36.60;16.63;;;0.30;99.90;;;;;;5090688;28;20176;-56
2024/01/19 04:20:10;;;;;;;38.80;16.77;;;0.30;99.90;;;;;;5091494;28;20209;-56
2024/01/19 04:22:35;;;;;;;36.15;15.77;;;0.30;99.90;;;;;;5091324;28;20636;-56
2024/01/19 04:25:01;;;;;;;33.47;16.98;;;0.30;99.90;;;;;;5091317;28;20533;-51
2024/01/19 04:27:27;;;;;;;40.20;17.90;;;0.30;99.90;;;;;;5091762;28;20169;-57
2024/01/19 04:29:52;;;;;;;34.92;14.63;;;0.30;99.90;;;;;;5091214;28;20229;-57
2024/01/19 04:32:18;;;;;;;39.60;17.17;;;0.30;99.90;;;;;;5091383;28;20560;-57
2024/01/19 04:34:43;;;;;;;41.28;16.75;;;0.30;99.90;;;;;;5091454;28;20196;-57
2024/01/19 04:37:09;;;;;;;31.77;16.15;;;0.40;99.90;;;;;;5091203;28;20158;-57
2024/01/19 04:39:34;;;;;;;37.63;17.45;;;0.40;99.90;;;;;;5091075;28;20284;-56
2024/01/19 04:42:00;;;;;;;35.90;17.10;;;0.40;99.90;;;;;;5091492;28;20506;-57
2024/01/19 04:44:25;;;;;;;35.88;16.50;;;0.40;99.90;;;;;;5091045;28;20184;-56
2024/01/19 04:46:51;;;;;;;47.10;17.38;;;0.30;99.90;;;;;;5091032;28;20169;-56
2024/01/19 04:49:16;;;;;;;32.50;15.27;;;0.40;99.90;;;;;;5090982;28;20180;-56
2024/01/19 04:51:42;;;;;;;33.13;15.40;;;0.30;99.90;;;;;;5091047;28;20276;-56
2024/01/19 04:54:08;;;;;;;32.05;16.40;;;0.30;99.90;;;;;;5091017;28;20243;-49
2024/01/19 04:56:34;;;;;;;33.78;13.85;;;0.30;99.90;;;;;;5090885;28;20318;-50
2024/01/19 04:59:00;;;;;;;27.20;14.00;;;0.30;99.90;;;;;;5091342;28;20234;-49
2024/01/19 05:01:25;;;;;;;16.90;9.45;;;0.20;99.90;;;;;;5091222;28;20177;-50
2024/01/19 05:03:51;;;;;;;29.40;13.68;;;0.30;99.90;;;;;;5089647;28;20162;-51
2024/01/19 05:06:17;;;;;;;26.83;13.20;;;0.30;99.90;;;;;;5090991;28;20189;-49
2024/01/19 05:08:43;;;;;;;30.30;13.90;;;0.30;99.90;;;;;;5090897;28;20169;-50
2024/01/19 05:11:13;;;;;;;23.58;13.05;;;0.30;99.90;;;;;;5090794;28;20165;-49
2024/01/19 05:13:43;;;;;;;32.67;13.82;;;0.20;99.90;;;;;;5091121;28;20207;-57
2024/01/19 05:16:09;;;;;;;22.08;11.50;;;0.20;99.90;;;;;;5091017;28;20177;-56
2024/01/19 05:18:35;;;;;;;31.63;15.10;;;0.10;99.90;;;;;;5090812;28;20239;-56
2024/01/19 05:21:01;;;;;;;30.55;14.05;;;0.20;99.90;;;;;;5091281;28;20173;-57
2024/01/19 05:23:27;;;;;;;25.40;13.13;;;0.20;99.90;;;;;;5091442;28;20162;-57
2024/01/19 05:25:52;;;;;;;26.65;13.65;;;0.30;99.90;;;;;;5090754;28;20235;-56
2024/01/19 05:28:18;;;;;;;28.25;12.63;;;0.20;99.90;;;;;;5090943;28;20629;-57
2024/01/19 05:30:44;;;;;;;23.52;12.13;;;0.20;99.90;;;;;;5094407;28;20188;-49
2024/01/19 05:33:10;;;;;;;24.63;12.60;;;0.10;99.90;;;;;;5094178;28;20161;-50
2024/01/19 05:35:35;;;;;;;29.13;14.48;;;0.20;99.90;;;;;;5094485;28;20169;-49
2024/01/19 05:38:01;;;;;;;28.92;14.50;;;0.20;99.90;;;;;;5094596;28;20165;-50
2024/01/19 05:40:26;;;;;;;29.83;14.23;;;0.20;99.90;;;;;;5094505;28;20242;-51
2024/01/19 05:42:52;;;;;;;25.17;12.20;;;0.30;99.90;;;;;;5094151;28;20173;-49
2024/01/19 05:45:17;;;;;;;33.33;13.95;;;0.30;99.90;;;;;;5094071;28;20169;-49
2024/01/19 05:47:43;;;;;;;29.85;14.10;;;0.20;99.90;;;;;;5093992;28;20173;-49
2024/01/19 05:50:09;;;;;;;31.67;14.43;;;0.20;99.90;;;;;;5093987;28;20199;-51
2024/01/19 05:52:34;;;;;;;32.45;14.70;;;0.20;99.90;;;;;;5094011;28;20198;-50
2024/01/19 05:55:00;;;;;;;30.25;14.02;;;0.10;99.90;;;;;;5094385;28;20193;-50
2024/01/19 05:57:25;;;;;;;32.50;14.57;;;0.10;99.90;;;;;;5093576;28;20252;-49
2024/01/19 05:59:51;;;;;;;25.35;13.68;;;0.10;99.90;;;;;;5093830;28;20197;-49
2024/01/19 06:02:17;;;;;;;29.63;13.75;;;0.00;99.90;;;;;;5093716;28;20218;-50
2024/01/19 06:04:42;;;;;;;25.63;12.93;;;0.00;99.90;;;;;;5093710;28;20176;-52
2024/01/19 06:07:08;;;;;;;32.85;14.70;;;-0.10;99.90;;;;;;5093636;28;20166;-50
2024/01/19 06:09:33;;;;;;;28.58;13.65;;;-0.10;99.90;;;;;;5093954;28;20773;-49
2024/01/19 06:11:59;;;;;;;30.13;13.32;;;-0.10;99.90;;;;;;5094071;28;20158;-49
2024/01/19 06:14:25;;;;;;;26.25;13.40;;;-0.30;99.90;;;;;;5093573;28;20166;-50
2024/01/19 06:16:52;;;;;;;24.23;13.32;;;-0.30;99.90;;;;;;5093607;28;20171;-51
2024/01/19 06:19:18;;;;;;;28.77;13.63;;;-0.40;99.90;;;;;;5093380;28;20193;-49
2024/01/19 06:21:47;;;;;;;25.67;14.15;;;-0.40;99.90;;;;;;5093355;28;20172;-52
2024/01/19 06:24:16;;;;;;;29.83;13.52;;;-0.50;99.90;;;;;;5093308;28;20705;-51
2024/01/19 06:26:48;;;;;;;25.42;13.50;;;-0.50;99.90;;;;;;5093212;28;20626;-51
2024/01/19 06:29:14;;;;;;;34.38;14.65;;;-0.60;99.90;;;;;;5093207;28;20165;-52
2024/01/19 06:31:47;;;;;;;34.03;16.17;;;-0.50;99.90;;;;;;5093233;28;20178;-51
2024/01/19 06:34:14;;;;;;;29.20;13.73;;;-0.50;99.90;;;;;;5093466;28;20201;-50
2024/01/19 06:36:46;;;;;;;30.38;14.30;;;-0.60;99.90;;;;;;5093072;28;20177;-52
2024/01/19 06:39:12;;;;;;;30.38;15.07;;;-0.50;99.90;;;;;;5093018;28;20205;-49
2024/01/19 06:41:44;;;;;;;35.05;15.75;;;-0.50;99.90;;;;;;5092593;28;20166;-56
2024/01/19 06:44:11;;;;;;;30.77;14.10;;;-0.60;99.90;;;;;;5092981;28;20165;-49
2024/01/19 06:46:37;;;;;;;30.77;14.68;;;-0.60;99.90;;;;;;5092888;28;20600;-53
2024/01/19 06:49:02;;;;;;;33.85;15.30;;;-0.60;99.90;;;;;;5091490;28;20161;-51
2024/01/19 06:51:28;;;;;;;30.80;15.52;;;-0.70;99.90;;;;;;5093251;28;20531;-49
2024/01/19 06:53:57;;;;;;;34.17;14.50;;;-0.80;99.90;;;;;;5093029;28;20219;-50
2024/01/19 06:56:23;;;;;;;27.48;14.05;;;-0.90;99.90;;;;;;5092753;28;20216;-49
2024/01/19 06:58:48;;;;;;;28.33;14.45;;;-0.90;99.90;;;;;;5092641;28;20189;-50
2024/01/19 07:01:14;;;;;;;31.85;13.57;;;-1.00;99.90;;;;;;5092887;28;20173;-48
2024/01/19 07:03:40;;;;;;;30.17;14.55;;;-1.10;99.90;;;;;;5092575;28;20177;-50
2024/01/19 07:06:05;;;;;;;37.17;15.40;;;-1.20;99.90;;;;;;5092624;28;20173;-49
2024/01/19 07:08:31;;;;;;;29.50;14.95;;;-1.20;99.90;;;;;;5093092;28;20165;-48
2024/01/19 07:10:56;;;;;;;26.38;13.60;;;-1.20;99.90;;;;;;5093274;28;20173;-49
2024/01/19 07:13:22;;;;;;;30.42;14.70;;;-1.20;99.90;;;;;;5092506;28;20161;-48
2024/01/19 07:15:48;;;;;;;29.30;15.02;;;-1.20;99.90;;;;;;5092420;28;20535;-53
2024/01/19 07:18:13;;;;;;;37.67;15.43;;;-1.20;99.90;;;;;;5092418;28;20160;-50
2024/01/19 07:20:39;;;;;;;33.67;16.08;;;-1.20;99.90;;;;;;5092280;28;20207;-49
2024/01/19 07:23:05;;;;;;;26.23;13.00;;;-1.20;99.90;;;;;;5092354;28;20169;-48
2024/01/19 07:25:30;;;;;;;29.85;15.48;;;-1.20;99.90;;;;;;5092967;28;20197;-48
2024/01/19 07:27:56;;;;;;;30.77;14.52;;;-1.30;99.90;;;;;;5092238;28;20162;-49
2024/01/19 07:30:21;;;;;;;30.08;15.60;;;-1.30;99.90;;;;;;5092099;28;20162;-48
2024/01/19 07:32:47;;;;;;;34.50;15.32;;;-1.30;99.90;;;;;;5091950;28;20176;-48
2024/01/19 07:35:12;;;;;;;29.45;14.63;;;-1.30;99.90;;;;;;5092094;28;20162;-49
2024/01/19 07:37:38;;;;;;;28.70;15.63;;;-1.30;99.90;;;;;;5092295;28;20170;-51
2024/01/19 07:40:04;;;;;;;25.48;13.57;;;-1.20;99.90;;;;;;5091836;28;20284;-57
2024/01/19 07:42:29;;;;;;;30.38;15.20;;;-1.20;99.90;;;;;;5091209;28;20219;-57
2024/01/19 07:44:55;;;;;;;24.95;14.30;;;-1.10;99.90;;;;;;5091902;28;20180;-55
2024/01/19 07:47:21;;;;;;;32.40;14.82;;;-1.20;99.90;;;;;;5091794;28;20200;-53
2024/01/19 07:49:46;;;;;;;24.10;12.18;;;-1.20;99.90;;;;;;5091795;28;20181;-58
2024/01/19 07:52:12;;;;;;;34.17;14.85;;;-1.10;99.90;;;;;;5091097;28;20170;-57
2024/01/19 07:54:38;;;;;;;25.30;13.93;;;-1.10;99.90;;;;;;5091942;28;20171;-57
2024/01/19 07:57:03;;;;;;;36.22;14.45;;;-1.00;99.90;;;;;;5091474;28;20235;-59
2024/01/19 07:59:29;;;;;;;28.08;13.00;;;-1.10;99.90;;;;;;5092010;28;20571;-59
2024/01/19 08:01:54;;;;;;;26.30;12.18;;;-1.00;99.90;;;;;;5091640;28;20207;-59
2024/01/19 08:04:20;;;;;;;18.40;10.15;;;-1.10;99.90;;;;;;5091576;28;20169;-59
2024/01/19 08:06:46;;;;;;;27.45;15.60;;;-1.10;99.90;;;;;;5091569;28;20201;-58
2024/01/19 08:09:13;;;;;;;31.25;15.20;;;-1.00;99.90;;;;;;5091766;28;20173;-59
2024/01/19 08:11:39;;;;;;;39.55;15.98;;;-1.00;99.90;;;;;;5091374;28;20688;-59
2024/01/19 08:14:05;;;;;;;34.95;15.30;;;-0.90;99.90;;;;;;5091433;28;20178;-57
2024/01/19 08:16:30;;;;;;;25.17;13.02;;;-0.80;99.90;;;;;;5092208;28;20162;-59
2024/01/19 08:18:56;;;;;;;29.42;15.90;;;-1.90;99.90;;;;;;5091787;28;20193;-59
2024/01/19 08:21:22;;;;;;;26.13;14.00;;;-0.60;99.90;;;;;;5091607;28;20199;-52
2024/01/19 08:23:48;;;;;;;32.25;15.88;;;-0.50;99.90;;;;;;5091329;28;20168;-59
2024/01/19 08:26:13;;;;;;;29.17;15.25;;;-0.50;99.90;;;;;;5091320;28;20191;-58
2024/01/19 08:28:39;;;;;;;26.73;13.70;;;-0.40;99.90;;;;;;5091355;28;20162;-59
2024/01/19 08:31:10;;;;;;;25.35;12.75;;;-0.40;99.90;;;;;;5089963;28;20181;-59
2024/01/19 08:33:36;;;;;;;27.85;14.77;;;-0.50;99.90;;;;;;5091238;28;20249;-56
2024/01/19 08:36:02;;;;;;;27.75;14.60;;;-0.40;99.90;;;;;;5091218;28;20169;-54
2024/01/19 08:38:27;;;;;;;32.35;15.48;;;-0.50;99.90;;;;;;5091550;28;20227;-53
2024/01/19 08:40:53;;;;;;;28.17;15.38;;;-0.40;99.90;;;;;;5091155;28;20169;-52
2024/01/19 08:43:19;;;;;;;29.33;17.08;;;-0.40;99.90;;;;;;5089829;28;20214;-54
2024/01/19 08:45:44;;;;;;;28.67;15.55;;;-0.30;99.90;;;;;;5091067;28;20632;-53
2024/01/19 08:48:10;;;;;;;33.80;16.42;;;-0.10;99.90;;;;;;5091132;28;20629;-52
2024/01/19 08:50:35;;;;;;;27.65;15.65;;;0.00;99.90;;;;;;5091074;28;20264;-52
2024/01/19 08:53:02;;;;;;;28.70;16.10;;;0.20;99.90;;;;;;5091087;28;20216;-52
2024/01/19 08:55:28;;;;;;;31.50;16.33;;;0.30;99.90;;;;;;5091402;28;20218;-52
2024/01/19 08:57:55;;;;;;;28.80;15.68;;;0.40;99.90;;;;;;5091221;28;20200;-53
2024/01/19 09:00:21;;;;;;;26.52;14.88;;;0.70;99.90;;;;;;5091229;28;20616;-53
2024/01/19 09:02:49;;;;;;;30.80;16.83;;;0.70;99.90;;;;;;5090868;28;20207;-54
2024/01/19 09:05:15;;;;;;;32.30;17.83;;;0.80;99.90;;;;;;5094490;28;20170;-55
2024/01/19 09:07:42;;;;;;;28.73;15.88;;;1.00;99.90;;;;;;5095010;28;20157;-54
2024/01/19 09:10:08;;;;;;;27.05;15.55;;;1.10;99.90;;;;;;5094820;28;20181;-51
2024/01/19 09:12:33;;;;;;;24.52;13.60;;;0.90;99.90;;;;;;5094794;28;20161;-52
2024/01/19 09:14:59;;;;;;;29.58;15.55;;;0.80;99.90;;;;;;5095447;28;20165;-52
2024/01/19 09:17:25;;;;;;;22.83;14.18;;;0.80;99.90;;;;;;5094191;28;20162;-52
2024/01/19 09:19:51;;;;;;;30.75;15.00;;;1.00;99.90;;;;;;5094365;28;20691;-51
2024/01/19 09:22:17;;;;;;;24.95;14.82;;;0.90;99.90;;;;;;5094835;28;20542;-52
2024/01/19 09:24:43;;;;;;;27.88;14.80;;;0.90;99.90;;;;;;5094129;28;20177;-53
2024/01/19 09:27:08;;;;;;;29.30;15.68;;;0.70;99.90;;;;;;5094522;28;20172;-59
2024/01/19 09:29:34;;;;;;;31.85;15.27;;;0.60;99.90;;;;;;5094418;28;20633;-51
2024/01/19 09:31:59;;;;;;;29.65;15.02;;;0.50;99.90;;;;;;5094680;28;20269;-52
2024/01/19 09:34:25;;;;;;;29.15;14.75;;;0.50;99.90;;;;;;5094288;28;20201;-52
2024/01/19 09:36:50;;;;;;;31.52;16.77;;;0.60;99.90;;;;;;5093726;28;20161;-51
2024/01/19 09:39:16;;;;;;;29.63;14.57;;;0.60;99.90;;;;;;5093711;28;20219;-54
2024/01/19 09:41:49;;;;;;;27.95;16.02;;;0.70;99.90;;;;;;5093394;28;20180;-52
2024/01/19 09:44:18;;;;;;;27.67;14.82;;;0.80;99.90;;;;;;5093397;28;20162;-52
2024/01/19 09:47:17;;;;;;;31.77;15.23;;;0.60;99.90;;;;;;5093286;28;20211;-56
2024/01/19 09:49:58;;;;;;;32.88;17.17;;;0.40;99.90;;;;;;5093245;28;20642;-52
2024/01/19 09:52:43;;;;;;;31.27;14.73;;;0.30;99.90;;;;;;5093228;28;20165;-52
2024/01/19 09:55:11;;;;;;;32.17;16.65;;;0.50;99.90;;;;;;5093843;28;20215;-52
2024/01/19 09:57:46;;;;;;;29.50;16.27;;;0.60;99.90;;;;;;5093679;28;20225;-52
2024/01/19 10:00:16;;;;;;;28.05;15.63;;;0.60;99.90;;;;;;5093731;28;20270;-51
2024/01/19 10:02:45;;;;;;;28.67;15.27;;;0.70;99.90;;;;;;5093973;28;20248;-53
2024/01/19 10:05:15;;;;;;;30.27;15.88;;;0.70;99.90;;;;;;5093929;28;20173;-56
2024/01/19 10:07:42;;;;;;;34.85;15.02;;;0.80;99.90;;;;;;5093611;28;20154;-52
2024/01/19 10:10:08;;;;;;;32.92;17.35;;;0.90;99.90;;;;;;5093677;28;20165;-57
2024/01/19 10:12:35;;;;;;;31.60;16.95;;;1.00;99.90;;;;;;5093570;28;20244;-55
2024/01/19 10:15:01;;;;;;;29.33;16.08;;;1.10;99.90;;;;;;5092712;28;20169;-51
2024/01/19 10:17:28;;;;;;;28.40;14.52;;;1.30;99.90;;;;;;5093799;28;20169;-53
2024/01/19 10:19:54;;;;;;;28.00;15.82;;;1.20;99.90;;;;;;5093380;28;20687;-51
2024/01/19 10:22:28;;;;;;;25.42;14.82;;;1.20;99.90;;;;;;5093419;28;20169;-52
2024/01/19 10:24:59;;;;;;;27.10;14.43;;;1.20;99.90;;;;;;5093413;28;20173;-52
2024/01/19 10:27:46;;;;;;;26.40;14.82;;;1.20;99.90;;;;;;5093507;28;20176;-52
2024/01/19 10:30:17;;;;;;;31.45;16.60;;;1.10;99.90;;;;;;5093341;28;20169;-51
2024/01/19 10:32:48;;;;;;;30.63;16.85;;;1.30;99.90;;;;;;5093207;28;20250;-52
2024/01/19 10:35:18;;;;;;;28.23;15.63;;;1.50;99.90;;;;;;5093417;28;20302;-52
2024/01/19 10:37:44;;;;;;;31.63;15.98;;;1.70;99.90;;;;;;5093160;28;20162;-52
2024/01/19 10:40:15;;;;;;;30.38;16.15;;;1.80;99.90;;;;;;5093022;28;20318;-53
2024/01/19 10:42:42;;;;;;;30.05;16.65;;;2.00;99.90;;;;;;5092973;28;20248;-51
2024/01/19 10:45:21;;;;;;;31.30;16.80;;;2.10;99.90;;;;;;5091690;28;20537;-58
2024/01/19 10:47:51;;;;;;;30.05;16.38;;;2.10;99.90;;;;;;5092873;28;20168;-51
2024/01/19 10:50:18;;;;;;;33.17;16.58;;;2.00;99.90;;;;;;5092860;28;20162;-50
2024/01/19 10:52:45;;;;;;;27.50;15.50;;;2.00;99.90;;;;;;5093135;28;20177;-54
2024/01/19 10:55:25;;;;;;;31.30;16.10;;;2.10;99.90;;;;;;5092754;28;20655;-53
2024/01/19 10:58:15;;;;;;;28.35;14.43;;;1.80;99.90;;;;;;5092985;28;20181;-51
2024/01/19 11:00:41;;;;;;;34.05;16.35;;;1.70;99.90;;;;;;5092500;28;20741;-60
2024/01/19 11:03:07;;;;;;;28.15;15.77;;;1.60;99.90;;;;;;5092644;28;20180;-59
2024/01/19 11:05:34;;;;;;;32.83;17.17;;;1.40;99.90;;;;;;5092644;28;20625;-57
2024/01/19 11:08:01;;;;;;;31.00;16.67;;;1.40;99.90;;;;;;5093397;28;20260;-51
2024/01/19 11:10:29;;;;;;;30.33;16.67;;;1.40;99.90;;;;;;5093043;28;20165;-55
2024/01/19 11:12:56;;;;;;;31.80;17.42;;;1.40;99.90;;;;;;5092532;28;20162;-52
2024/01/19 11:15:38;;;;;;;29.33;15.93;;;1.50;99.90;;;;;;5092427;28;20613;-52
2024/01/19 11:18:05;;;;;;;31.77;16.90;;;1.70;99.90;;;;;;5092392;28;20157;-52
2024/01/19 11:20:32;;;;;;;33.92;19.98;;;1.70;99.90;;;;;;5092465;28;20212;-52
2024/01/19 11:22:58;;;;;;;37.05;20.13;;;1.90;99.90;;;;;;5092728;28;20181;-51
2024/01/19 11:25:42;;;;;;;45.63;22.85;;;2.00;99.90;;;;;;5092275;28;20644;-52
2024/01/19 11:28:16;;;;;;;34.15;17.65;;;1.90;99.90;;;;;;5092197;28;20262;-52
2024/01/19 11:31:00;;;;;;;39.13;19.67;;;2.00;99.90;;;;;;5092357;28;20180;-52
2024/01/19 11:33:33;;;;;;;38.30;17.90;;;2.10;99.90;;;;;;5093052;28;20576;-53
2024/01/19 11:35:58;;;;;;;49.50;27.67;;;2.10;99.90;;;;;;5092417;28;20166;-52
2024/01/19 11:38:43;;;;;;;43.42;23.45;;;2.00;99.90;;;;;;5091992;28;20161;-54
2024/01/19 11:41:12;;;;;;;32.75;17.70;;;2.30;99.90;;;;;;5091862;28;20665;-51
2024/01/19 11:43:42;;;;;;;32.65;16.75;;;2.20;99.90;;;;;;5092055;28;20190;-51
2024/01/19 11:46:11;;;;;;;34.40;17.00;;;2.00;99.90;;;;;;5092077;28;20161;-51
2024/01/19 11:48:41;;;;;;;30.92;15.93;;;1.90;99.90;;;;;;5092006;28;20183;-52
2024/01/19 11:51:07;;;;;;;33.28;16.40;;;1.90;99.90;;;;;;5091996;28;20205;-55
2024/01/19 11:53:55;;;;;;;29.77;16.73;;;1.90;99.90;;;;;;5091841;28;20218;-52
2024/01/19 11:56:22;;;;;;;31.15;17.48;;;1.80;99.90;;;;;;5091652;28;20299;-53
2024/01/19 11:58:48;;;;;;;29.13;16.10;;;1.90;99.90;;;;;;5091583;28;20223;-52
2024/01/19 12:01:14;;;;;;;29.80;16.58;;;2.00;99.90;;;;;;5091623;28;20181;-53
2024/01/19 12:03:40;;;;;;;33.47;18.67;;;2.00;99.90;;;;;;5091532;28;20640;-51
2024/01/19 12:06:06;;;;;;;34.67;18.15;;;2.00;99.90;;;;;;5091450;28;20664;-51
2024/01/19 12:08:32;;;;;;;34.17;17.60;;;2.10;99.90;;;;;;5091502;28;20632;-53
2024/01/19 12:11:06;;;;;;;31.88;16.52;;;2.10;99.90;;;;;;5092003;28;20299;-51
2024/01/19 12:13:33;;;;;;;29.75;14.95;;;2.30;99.90;;;;;;5091361;28;20652;-51
2024/01/19 12:16:01;;;;;;;32.30;15.27;;;2.30;99.90;;;;;;5091854;28;20169;-52
2024/01/19 12:18:27;;;;;;;31.27;15.52;;;2.40;99.90;;;;;;5091986;28;20173;-54
2024/01/19 12:20:57;;;;;;;26.27;12.80;;;2.30;99.90;;;;;;5090282;28;20201;-55
2024/01/19 12:23:24;;;;;;;27.02;13.98;;;2.40;99.90;;;;;;5091277;28;20154;-57
2024/01/19 12:25:57;;;;;;;27.85;14.60;;;2.30;99.90;;;;;;5091155;28;20637;-53
2024/01/19 12:28:23;;;;;;;26.20;13.73;;;2.40;99.90;;;;;;5091190;28;20246;-52
2024/01/19 12:30:51;;;;;;;22.98;13.85;;;2.50;99.90;;;;;;5091439;28;20204;-51